Time;durP1;ratioP1;P1;durP2;ratioP2;P2;SDS_P1;SDS_P2;PMS_P1;PMS_P2;Temp;Humidity;BMP_temperature;BMP_pressure;BME280_temperature;BME280_humidity;BME280_pressure;Samples;Min_cycle;Max_cycle;Signal;HPM_P1;HPM_P2
2023/11/13 00:01:29;;;;;;;3.55;3.22;;;5.60;99.90;;;;;;4990671;28;20252;-73
2023/11/13 00:03:56;;;;;;;4.28;3.22;;;5.60;99.90;;;;;;4991245;28;20209;-73
2023/11/13 00:06:23;;;;;;;4.53;3.50;;;5.60;99.90;;;;;;4994601;28;20224;-72
2023/11/13 00:08:49;;;;;;;3.75;3.35;;;5.60;99.90;;;;;;4989964;28;20236;-72
2023/11/13 00:11:17;;;;;;;5.70;3.95;;;5.70;99.90;;;;;;4994119;28;20227;-72
2023/11/13 00:13:45;;;;;;;4.63;3.15;;;5.70;99.90;;;;;;4993880;28;20213;-72
2023/11/13 04:31:20;;;;;;;2.03;1.00;;;9.10;99.90;;;;;;5708520;23;20238;-71
2023/11/13 04:33:50;;;;;;;1.23;0.90;;;9.10;99.90;;;;;;4992127;28;20614;-72
2023/11/13 04:36:16;;;;;;;1.30;1.20;;;9.10;99.90;;;;;;4994298;28;20211;-72
2023/11/13 04:38:43;;;;;;;1.67;1.30;;;9.20;99.90;;;;;;4993501;28;20211;-72
2023/11/13 04:41:15;;;;;;;1.15;1.05;;;9.20;99.90;;;;;;4994051;28;20238;-73
2023/11/13 04:43:42;;;;;;;1.30;1.20;;;9.20;99.90;;;;;;4993493;28;20207;-72
2023/11/13 04:46:09;;;;;;;1.50;1.10;;;9.20;99.90;;;;;;4992936;28;20207;-72
2023/11/13 04:48:38;;;;;;;1.00;0.90;;;9.20;99.90;;;;;;4993358;28;20209;-72
2023/11/13 04:51:05;;;;;;;1.20;1.10;;;9.20;99.90;;;;;;4991749;28;20254;-72
2023/11/13 04:53:32;;;;;;;3.20;1.30;;;9.20;99.90;;;;;;4993582;28;20203;-72
2023/11/13 04:55:59;;;;;;;1.35;1.05;;;9.20;99.90;;;;;;4992706;28;20207;-72
2023/11/13 04:58:25;;;;;;;1.58;1.40;;;9.20;99.90;;;;;;4993320;28;20204;-72
2023/11/13 05:00:53;;;;;;;1.40;1.20;;;9.30;99.90;;;;;;4992995;28;20223;-72
2023/11/13 05:03:20;;;;;;;2.97;1.73;;;9.30;99.90;;;;;;4993382;28;20219;-72
2023/11/13 05:05:48;;;;;;;1.88;1.40;;;9.30;99.90;;;;;;4992507;28;20207;-72
2023/11/13 05:08:15;;;;;;;1.30;1.15;;;9.30;99.90;;;;;;4992122;28;20219;-72
2023/11/13 05:10:42;;;;;;;2.80;1.30;;;9.30;99.90;;;;;;4994127;28;20770;-72
2023/11/13 05:13:09;;;;;;;3.83;1.35;;;9.30;99.90;;;;;;4993301;28;20203;-72
2023/11/13 05:15:36;;;;;;;1.67;1.58;;;9.30;99.90;;;;;;4990531;28;20203;-73
2023/11/13 05:18:02;;;;;;;4.10;1.60;;;9.30;99.90;;;;;;4990847;28;20203;-71
2023/11/13 05:20:29;;;;;;;3.17;1.48;;;9.30;99.90;;;;;;4989669;28;20211;-72
2023/11/13 05:22:58;;;;;;;3.40;2.10;;;9.30;99.90;;;;;;4989069;28;20211;-71
2023/11/13 05:25:26;;;;;;;4.60;1.52;;;9.40;99.90;;;;;;4990984;28;20203;-72
2023/11/13 05:27:52;;;;;;;2.35;1.73;;;9.30;99.90;;;;;;4993176;28;20223;-72
2023/11/13 05:30:19;;;;;;;4.28;1.85;;;9.40;99.90;;;;;;4994306;28;20203;-70
2023/11/13 05:32:46;;;;;;;5.30;1.67;;;9.40;99.90;;;;;;4992964;28;20591;-70
2023/11/13 05:35:12;;;;;;;8.05;1.30;;;9.40;99.90;;;;;;4992343;28;20210;-70
2023/11/13 05:37:39;;;;;;;4.00;1.45;;;9.40;99.90;;;;;;4993045;28;20206;-70
2023/11/13 05:40:08;;;;;;;3.25;1.60;;;9.50;99.90;;;;;;4992808;28;20208;-70
2023/11/13 05:42:36;;;;;;;5.40;1.75;;;9.50;99.90;;;;;;4993330;28;20287;-70
2023/11/13 05:45:02;;;;;;;5.97;2.25;;;9.50;99.90;;;;;;4992201;28;20207;-71
2023/11/13 05:47:29;;;;;;;3.30;2.15;;;9.50;99.90;;;;;;4992901;28;20220;-71
2023/11/13 05:49:56;;;;;;;7.90;2.40;;;9.50;99.90;;;;;;4992757;28;20230;-70
2023/11/13 05:52:22;;;;;;;6.03;2.25;;;9.40;99.90;;;;;;4992842;28;20223;-71
2023/11/13 05:54:50;;;;;;;4.00;1.90;;;9.40;99.90;;;;;;4992281;28;20207;-70
2023/11/13 05:57:18;;;;;;;1.65;1.23;;;9.50;99.90;;;;;;4992502;28;20764;-70
2023/11/13 05:59:45;;;;;;;2.08;1.50;;;9.40;99.90;;;;;;4992755;28;20203;-71
2023/11/13 06:02:12;;;;;;;5.30;1.85;;;9.50;99.90;;;;;;4991991;28;20707;-71
2023/11/13 06:04:43;;;;;;;3.92;1.73;;;9.40;99.90;;;;;;4992088;28;20199;-70
2023/11/13 06:07:09;;;;;;;4.18;1.80;;;9.40;99.90;;;;;;4992456;28;20234;-70
2023/11/13 06:09:38;;;;;;;1.63;1.52;;;9.50;99.90;;;;;;4992654;28;20207;-71
2023/11/13 06:12:05;;;;;;;7.47;1.95;;;9.50;99.90;;;;;;4992070;28;20235;-71
2023/11/13 06:14:33;;;;;;;2.53;1.90;;;9.50;99.90;;;;;;4992059;28;20621;-71
2023/11/13 06:17:00;;;;;;;4.53;1.63;;;9.50;99.90;;;;;;4992146;28;20585;-71
2023/11/13 06:19:27;;;;;;;3.17;1.92;;;9.50;99.90;;;;;;4992427;28;20250;-71
2023/11/13 06:21:53;;;;;;;5.82;2.15;;;9.50;99.90;;;;;;4992119;28;20621;-70
2023/11/13 06:24:20;;;;;;;4.90;2.15;;;9.50;99.90;;;;;;4991977;28;20286;-70
2023/11/13 06:26:48;;;;;;;4.40;2.10;;;9.50;99.90;;;;;;4992068;28;20214;-70
2023/11/13 06:29:15;;;;;;;2.38;1.60;;;9.50;99.90;;;;;;4992006;28;20563;-70
2023/11/13 06:31:43;;;;;;;4.07;1.83;;;9.60;99.90;;;;;;4992083;28;20459;-70
2023/11/13 06:34:11;;;;;;;3.00;1.48;;;9.50;99.90;;;;;;4991394;28;20203;-70
2023/11/13 06:36:41;;;;;;;4.15;2.13;;;9.60;99.90;;;;;;4992035;28;20258;-71
2023/11/13 06:39:08;;;;;;;9.43;1.92;;;9.60;99.90;;;;;;4992064;28;20204;-70
2023/11/13 06:41:35;;;;;;;4.07;1.95;;;9.60;99.90;;;;;;4992106;28;20223;-70
2023/11/13 06:44:04;;;;;;;3.80;1.60;;;9.60;99.90;;;;;;4991143;28;20265;-70
2023/11/13 06:46:30;;;;;;;2.35;1.58;;;9.60;99.90;;;;;;4992033;28;20217;-70
2023/11/13 06:48:59;;;;;;;3.85;2.03;;;9.60;99.90;;;;;;4991736;28;20228;-70
2023/11/13 06:51:24;;;;;;;4.97;1.45;;;9.60;99.90;;;;;;4991593;28;20227;-70
2023/11/13 06:53:52;;;;;;;5.13;1.50;;;9.60;99.90;;;;;;4991270;28;20211;-70
2023/11/13 06:56:19;;;;;;;6.10;2.40;;;9.70;99.90;;;;;;4991655;28;20243;-70
2023/11/13 06:58:45;;;;;;;4.57;1.98;;;9.70;99.90;;;;;;4991631;28;20207;-71
2023/11/13 07:01:13;;;;;;;2.28;1.50;;;9.70;99.90;;;;;;4991542;28;20242;-71
2023/11/13 07:03:40;;;;;;;4.55;2.35;;;9.70;99.90;;;;;;4991306;28;20698;-71
2023/11/13 07:06:10;;;;;;;3.72;1.92;;;9.70;99.90;;;;;;4991182;28;20207;-70
2023/11/13 07:08:37;;;;;;;3.50;1.65;;;9.70;99.90;;;;;;4991595;28;20222;-70
2023/11/13 07:11:04;;;;;;;5.93;1.90;;;9.70;99.90;;;;;;4991207;28;20227;-70
2023/11/13 07:13:32;;;;;;;4.75;1.73;;;9.70;99.90;;;;;;4990629;28;20240;-71
2023/11/13 07:15:59;;;;;;;4.07;1.63;;;9.70;99.90;;;;;;4991201;28;20217;-70
2023/11/13 07:18:25;;;;;;;4.32;1.90;;;9.70;99.90;;;;;;4991380;28;20679;-70
2023/11/13 07:20:52;;;;;;;7.22;2.08;;;9.70;99.90;;;;;;4991518;28;20238;-70
2023/11/13 07:23:20;;;;;;;3.20;1.90;;;9.70;99.90;;;;;;4991635;28;20270;-71
2023/11/13 07:25:48;;;;;;;3.33;2.00;;;9.70;99.90;;;;;;4991152;28;20212;-70
2023/11/13 07:28:18;;;;;;;1.80;1.33;;;9.70;99.90;;;;;;4991018;28;20330;-71
2023/11/13 07:30:45;;;;;;;4.63;1.92;;;9.80;99.90;;;;;;4990939;28;20232;-71
2023/11/13 07:33:12;;;;;;;2.15;1.60;;;9.70;99.90;;;;;;4990968;28;20211;-71
2023/11/13 07:35:40;;;;;;;4.47;2.17;;;9.80;99.90;;;;;;4990931;28;20230;-71
2023/11/13 07:38:07;;;;;;;6.10;1.80;;;9.80;99.90;;;;;;4991169;28;20207;-71
2023/11/13 07:40:36;;;;;;;4.70;1.60;;;9.80;99.90;;;;;;4991290;28;20203;-71
2023/11/13 07:43:04;;;;;;;6.25;2.15;;;9.80;99.90;;;;;;4991180;28;20211;-71
2023/11/13 07:45:30;;;;;;;2.85;1.60;;;9.80;99.90;;;;;;4986034;28;20207;-71
2023/11/13 07:47:57;;;;;;;3.20;1.60;;;9.80;99.90;;;;;;4990837;28;20230;-71
2023/11/13 07:50:27;;;;;;;1.42;1.33;;;9.80;99.90;;;;;;4989754;28;20216;-71
2023/11/13 07:52:54;;;;;;;6.40;1.63;;;9.80;99.90;;;;;;4990961;28;20581;-71
2023/11/13 07:55:22;;;;;;;1.85;1.30;;;9.80;99.90;;;;;;4990610;28;20216;-71
2023/11/13 07:57:52;;;;;;;4.75;1.50;;;9.70;99.90;;;;;;4990813;28;20557;-71
2023/11/13 08:00:23;;;;;;;9.02;1.77;;;9.70;99.90;;;;;;4990508;28;20211;-71
2023/11/13 08:02:50;;;;;;;1.77;1.30;;;9.60;99.90;;;;;;4990765;28;20572;-71
2023/11/13 08:05:17;;;;;;;4.50;1.48;;;9.60;99.90;;;;;;4990393;28;20262;-71
2023/11/13 08:07:45;;;;;;;1.85;1.30;;;9.60;99.90;;;;;;4990308;28;20223;-71
2023/11/13 08:10:13;;;;;;;2.00;1.25;;;9.60;99.90;;;;;;4990791;28;20207;-71
2023/11/13 08:12:43;;;;;;;4.60;1.85;;;9.60;99.90;;;;;;4990575;28;20220;-71
2023/11/13 08:15:13;;;;;;;6.95;1.73;;;9.60;99.90;;;;;;4990185;28;20204;-71
2023/11/13 08:17:42;;;;;;;4.25;1.90;;;9.50;99.90;;;;;;4990817;28;20318;-71
2023/11/13 08:20:13;;;;;;;3.70;1.42;;;9.50;99.90;;;;;;4991073;28;20215;-71
2023/11/13 08:22:41;;;;;;;1.63;1.38;;;9.50;99.90;;;;;;4990418;28;20203;-71
2023/11/13 08:25:11;;;;;;;2.15;1.17;;;9.40;99.90;;;;;;4991548;28;20203;-71
2023/11/13 08:27:39;;;;;;;3.42;1.58;;;9.40;99.90;;;;;;4994197;28;20227;-71
2023/11/13 08:30:08;;;;;;;4.65;1.05;;;9.40;99.90;;;;;;4993925;28;20207;-71
2023/11/13 08:32:38;;;;;;;3.92;1.52;;;9.30;99.90;;;;;;4992434;28;20255;-71
2023/11/13 08:35:11;;;;;;;1.40;1.20;;;9.30;99.90;;;;;;4993508;28;20291;-70
2023/11/13 08:37:39;;;;;;;2.63;1.30;;;9.20;99.90;;;;;;4987958;28;20298;-70
2023/11/13 08:40:12;;;;;;;2.53;1.42;;;9.30;99.90;;;;;;4993357;28;20301;-71
2023/11/13 08:42:40;;;;;;;1.52;1.15;;;9.30;99.90;;;;;;4981167;28;20234;-70
2023/11/13 08:45:12;;;;;;;2.17;1.20;;;9.30;99.90;;;;;;4993390;28;20211;-70
2023/11/13 08:47:43;;;;;;;2.80;1.20;;;9.30;99.90;;;;;;4993751;28;20231;-69
2023/11/13 08:50:11;;;;;;;2.75;1.25;;;9.30;99.90;;;;;;4993734;28;20761;-70
2023/11/13 08:52:40;;;;;;;1.67;1.10;;;9.40;99.90;;;;;;4992702;28;20219;-70
2023/11/13 08:55:10;;;;;;;3.15;1.50;;;9.30;99.90;;;;;;4993446;28;20377;-71
2023/11/13 08:57:38;;;;;;;4.47;1.35;;;9.30;99.90;;;;;;4993560;28;20290;-71
2023/11/13 09:00:05;;;;;;;5.63;1.35;;;9.30;99.90;;;;;;4994048;28;20206;-70
2023/11/13 09:02:32;;;;;;;1.77;1.42;;;9.30;99.90;;;;;;4993370;28;20227;-71
2023/11/13 09:05:03;;;;;;;2.25;1.60;;;9.30;99.90;;;;;;4993130;28;20672;-70
2023/11/13 09:07:30;;;;;;;2.30;1.13;;;9.30;99.90;;;;;;4994002;28;20634;-71
2023/11/13 09:10:08;;;;;;;2.00;1.58;;;9.30;99.90;;;;;;4993324;28;20222;-71
2023/11/13 09:12:36;;;;;;;2.70;1.58;;;9.30;99.90;;;;;;4992631;28;20613;-71
2023/11/13 09:15:04;;;;;;;7.20;1.67;;;9.30;99.90;;;;;;4993109;28;20238;-71
2023/11/13 09:17:31;;;;;;;2.42;1.67;;;9.40;99.90;;;;;;4993569;28;20583;-71
2023/11/13 09:19:57;;;;;;;5.32;1.95;;;9.40;99.90;;;;;;4993231;28;20286;-71
2023/11/13 09:22:26;;;;;;;5.50;1.70;;;9.40;99.90;;;;;;4991059;28;20342;-71
2023/11/13 09:24:53;;;;;;;4.57;1.20;;;9.40;99.90;;;;;;4992772;28;20270;-71
2023/11/13 09:27:19;;;;;;;4.30;1.52;;;9.40;99.90;;;;;;4993008;28;20235;-71
2023/11/13 09:29:46;;;;;;;2.15;1.15;;;9.50;99.90;;;;;;4993078;28;20700;-71
2023/11/13 09:32:14;;;;;;;1.20;1.10;;;9.60;99.90;;;;;;4993108;28;20231;-71
2023/11/13 09:34:42;;;;;;;4.13;1.50;;;9.70;99.90;;;;;;4992347;28;20358;-71
2023/11/13 09:37:08;;;;;;;1.33;1.23;;;9.70;99.90;;;;;;4992445;28;20269;-71
2023/11/13 09:39:41;;;;;;;2.25;1.20;;;9.80;99.90;;;;;;4992926;28;20204;-71
2023/11/13 09:42:14;;;;;;;4.45;1.25;;;9.80;99.90;;;;;;4992773;28;20223;-71
2023/11/13 09:44:42;;;;;;;2.15;1.52;;;9.90;99.90;;;;;;4992261;28;20223;-71
2023/11/13 09:47:10;;;;;;;1.77;1.35;;;10.00;99.90;;;;;;4992898;28;20586;-71
2023/11/13 09:49:44;;;;;;;1.45;1.35;;;10.10;99.90;;;;;;4991377;28;20227;-71
2023/11/13 09:52:13;;;;;;;2.78;1.20;;;10.20;99.90;;;;;;4971160;28;20667;-71
2023/11/13 09:54:43;;;;;;;1.95;1.30;;;10.30;99.90;;;;;;4991928;28;20213;-71
2023/11/13 09:57:13;;;;;;;2.10;1.20;;;10.40;99.90;;;;;;4992744;28;20210;-71
2023/11/13 09:59:41;;;;;;;1.13;1.02;;;10.50;99.90;;;;;;4992453;28;20203;-70
2023/11/13 10:02:10;;;;;;;1.20;1.10;;;10.60;99.90;;;;;;4985564;28;20224;-70
2023/11/13 10:04:37;;;;;;;2.00;1.40;;;10.60;99.90;;;;;;4984716;28;20215;-71
2023/11/13 10:07:06;;;;;;;2.65;1.50;;;10.70;99.90;;;;;;4985972;28;20672;-72
2023/11/13 10:09:35;;;;;;;1.30;1.10;;;10.70;99.90;;;;;;4984731;28;20228;-71
2023/11/13 10:12:03;;;;;;;4.18;1.55;;;10.70;99.90;;;;;;4985684;28;20223;-72
2023/11/13 10:14:30;;;;;;;1.48;1.17;;;10.80;99.90;;;;;;4983284;28;20212;-71
2023/11/13 10:17:00;;;;;;;2.90;1.48;;;10.80;99.90;;;;;;4986149;28;20212;-72
2023/11/13 10:19:27;;;;;;;5.57;1.40;;;10.90;99.90;;;;;;4989722;28;20196;-72
2023/11/13 10:21:56;;;;;;;2.10;1.27;;;10.90;99.90;;;;;;4992270;28;20232;-71
2023/11/13 10:24:25;;;;;;;1.45;1.23;;;11.00;99.90;;;;;;4991598;28;20214;-71
2023/11/13 10:26:52;;;;;;;1.55;1.20;;;11.00;99.90;;;;;;4992261;28;20213;-72
2023/11/13 10:29:26;;;;;;;2.00;1.23;;;11.00;99.90;;;;;;4992077;28;20230;-72
2023/11/13 10:31:53;;;;;;;2.05;1.58;;;11.10;99.90;;;;;;4991961;28;20223;-72
2023/11/13 10:34:20;;;;;;;2.65;1.10;;;11.10;99.90;;;;;;4991905;28;20588;-72
2023/11/13 10:37:10;;;;;;;2.83;1.55;;;11.20;99.90;;;;;;4991946;28;20200;-72
2023/11/13 10:39:40;;;;;;;4.60;2.03;;;11.20;99.90;;;;;;4990373;28;20211;-72
2023/11/13 10:42:15;;;;;;;1.90;1.50;;;11.30;99.90;;;;;;4991902;28;20295;-72
2023/11/13 10:44:43;;;;;;;1.30;1.20;;;11.40;99.90;;;;;;4991289;28;20207;-72
2023/11/13 10:47:21;;;;;;;3.47;1.65;;;11.40;99.90;;;;;;4992141;28;20610;-72
2023/11/13 10:49:49;;;;;;;1.75;1.50;;;11.50;99.90;;;;;;4991690;28;20228;-72
2023/11/13 10:52:17;;;;;;;2.15;1.30;;;11.60;99.90;;;;;;4991682;28;20849;-72
2023/11/13 10:54:46;;;;;;;4.22;1.73;;;11.60;99.90;;;;;;4991098;28;20208;-72
2023/11/13 10:57:14;;;;;;;1.70;1.20;;;11.70;99.90;;;;;;4991839;28;20208;-72
2023/11/13 10:59:40;;;;;;;3.10;1.48;;;11.70;99.90;;;;;;4991798;28;20208;-72
2023/11/13 11:02:21;;;;;;;2.88;1.75;;;11.70;99.90;;;;;;4991583;28;20231;-72
2023/11/13 11:04:53;;;;;;;5.22;1.60;;;11.80;99.90;;;;;;4990947;28;20207;-73
2023/11/13 11:07:24;;;;;;;1.27;1.17;;;11.90;99.90;;;;;;4991588;28;20210;-72
2023/11/13 11:09:52;;;;;;;5.78;1.77;;;11.90;99.90;;;;;;4991367;28;20234;-72
2023/11/13 11:12:19;;;;;;;2.80;1.30;;;11.90;99.90;;;;;;4991614;28;20229;-72
2023/11/13 11:14:54;;;;;;;2.55;1.70;;;11.90;99.90;;;;;;4990848;28;20209;-72
2023/11/13 11:17:31;;;;;;;2.75;1.30;;;11.90;99.90;;;;;;4991514;28;20207;-72
2023/11/13 11:20:05;;;;;;;2.67;1.40;;;11.90;99.90;;;;;;4991712;28;20314;-72
2023/11/13 11:22:39;;;;;;;1.88;1.20;;;12.00;99.90;;;;;;4988768;28;20261;-72
2023/11/13 11:25:29;;;;;;;1.95;1.42;;;12.00;99.90;;;;;;4990909;28;20220;-72
2023/11/13 11:27:56;;;;;;;3.15;1.63;;;12.00;99.90;;;;;;4991369;28;20696;-72
2023/11/13 11:30:32;;;;;;;2.03;1.35;;;12.00;99.90;;;;;;4991557;28;20226;-72
2023/11/13 11:33:04;;;;;;;1.35;1.25;;;12.00;99.90;;;;;;4991315;28;20291;-72
2023/11/13 11:35:37;;;;;;;1.55;1.33;;;12.10;99.90;;;;;;4991160;28;20210;-72
2023/11/13 11:38:26;;;;;;;2.75;1.83;;;12.10;99.90;;;;;;4991127;28;20233;-72
2023/11/13 11:40:53;;;;;;;2.33;1.60;;;12.10;99.90;;;;;;4988187;28;20217;-72
2023/11/13 11:43:22;;;;;;;1.60;1.35;;;12.10;99.90;;;;;;4991230;28;20731;-72
2023/11/13 11:45:51;;;;;;;1.92;1.38;;;12.20;99.90;;;;;;4990601;28;20649;-72
2023/11/13 11:48:19;;;;;;;4.75;1.83;;;12.20;99.90;;;;;;4991304;28;20213;-72
2023/11/13 11:50:47;;;;;;;1.50;1.40;;;12.20;99.90;;;;;;4990752;28;20236;-72
2023/11/13 11:53:16;;;;;;;3.55;1.67;;;12.20;99.90;;;;;;4991176;28;20271;-72
2023/11/13 11:55:43;;;;;;;1.80;1.55;;;12.20;99.90;;;;;;4990461;28;20213;-72
2023/11/13 11:58:12;;;;;;;4.30;1.70;;;12.20;99.90;;;;;;4991419;28;20200;-72
2023/11/13 12:00:39;;;;;;;1.88;1.52;;;12.20;99.90;;;;;;4993274;28;20704;-72
2023/11/13 12:03:07;;;;;;;2.30;1.23;;;12.30;99.90;;;;;;4995026;28;20573;-72
2023/11/13 12:05:35;;;;;;;3.22;2.08;;;12.20;99.90;;;;;;4994335;28;20307;-72
2023/11/13 12:08:05;;;;;;;2.80;1.50;;;12.30;99.90;;;;;;4995063;28;20230;-72
2023/11/13 12:10:34;;;;;;;1.73;1.50;;;12.20;99.90;;;;;;4994528;28;20223;-72
2023/11/13 12:13:02;;;;;;;2.75;1.92;;;12.30;99.90;;;;;;4994775;28;20444;-72
2023/11/13 12:15:28;;;;;;;3.60;1.98;;;12.30;99.90;;;;;;4994586;28;20202;-72
2023/11/13 12:17:56;;;;;;;4.15;1.92;;;12.30;99.90;;;;;;4994546;28;20684;-72
2023/11/13 12:20:26;;;;;;;5.05;2.30;;;12.40;99.90;;;;;;4994710;28;20201;-72
2023/11/13 12:22:55;;;;;;;2.55;1.60;;;12.30;99.90;;;;;;4994616;28;20209;-72
2023/11/13 12:25:22;;;;;;;3.97;2.08;;;12.40;99.90;;;;;;4993823;28;20257;-73
2023/11/13 12:27:49;;;;;;;5.75;1.70;;;12.40;99.90;;;;;;4994191;28;20237;-72
2023/11/13 12:30:16;;;;;;;4.07;1.70;;;12.40;99.90;;;;;;4988083;28;20217;-72
2023/11/13 12:32:44;;;;;;;3.72;1.45;;;12.40;99.90;;;;;;4992095;28;20308;-72
2023/11/13 12:35:12;;;;;;;2.65;1.40;;;12.40;99.90;;;;;;4993940;28;20209;-72
2023/11/13 12:37:41;;;;;;;3.22;1.60;;;12.40;99.90;;;;;;4994006;28;20691;-72
2023/11/13 12:40:13;;;;;;;2.20;1.45;;;12.50;99.90;;;;;;4994213;28;20209;-73
2023/11/13 12:42:40;;;;;;;2.55;1.38;;;12.50;99.90;;;;;;4994046;28;20214;-72
2023/11/13 12:45:12;;;;;;;1.80;1.47;;;12.50;99.90;;;;;;4993529;28;20240;-72
2023/11/13 12:47:39;;;;;;;2.90;1.60;;;12.60;99.90;;;;;;4994126;28;20851;-72
2023/11/13 12:50:07;;;;;;;3.05;1.67;;;12.50;99.90;;;;;;4994066;28;20511;-72
2023/11/13 12:52:37;;;;;;;2.20;1.53;;;12.60;99.90;;;;;;4993991;28;20233;-72
2023/11/13 12:55:04;;;;;;;1.53;1.43;;;12.60;99.90;;;;;;4993406;28;20477;-72
2023/11/13 12:57:37;;;;;;;1.80;1.40;;;12.50;99.90;;;;;;4993893;28;20501;-72
2023/11/13 13:00:14;;;;;;;1.90;1.27;;;12.60;99.90;;;;;;4993868;28;20571;-72
2023/11/13 13:02:43;;;;;;;2.53;1.40;;;12.60;99.90;;;;;;4995111;28;20496;-72
2023/11/13 13:05:11;;;;;;;1.90;1.40;;;12.60;99.90;;;;;;4982534;28;20875;-71
2023/11/13 13:07:37;;;;;;;1.95;1.58;;;12.70;99.90;;;;;;4980039;28;20211;-72
2023/11/13 13:10:11;;;;;;;1.23;1.07;;;12.70;99.90;;;;;;4990929;28;20719;-72
2023/11/13 13:12:40;;;;;;;1.70;1.60;;;12.70;99.90;;;;;;4992577;28;20985;-72
2023/11/13 13:15:09;;;;;;;1.40;1.20;;;12.70;99.90;;;;;;4990826;28;20207;-72
2023/11/13 13:17:38;;;;;;;1.37;1.20;;;12.70;99.90;;;;;;4993459;28;20465;-72
2023/11/13 13:20:08;;;;;;;1.47;1.20;;;12.70;99.90;;;;;;4993586;28;20523;-72
2023/11/13 13:22:36;;;;;;;3.40;1.60;;;12.70;99.90;;;;;;4993827;28;20853;-72
2023/11/13 13:25:02;;;;;;;2.57;1.70;;;12.70;99.90;;;;;;4992579;28;20465;-72
2023/11/13 13:27:29;;;;;;;1.73;1.40;;;12.80;99.90;;;;;;4994120;28;20524;-72
2023/11/13 13:29:57;;;;;;;3.80;1.20;;;12.70;99.90;;;;;;4993018;28;20492;-72
2023/11/13 13:32:28;;;;;;;1.57;1.47;;;12.70;99.90;;;;;;4987861;28;21001;-72
2023/11/13 13:34:56;;;;;;;1.63;1.15;;;12.80;99.90;;;;;;4992606;28;20469;-72
2023/11/13 13:37:24;;;;;;;1.33;1.23;;;12.80;99.90;;;;;;4993208;28;20207;-72
2023/11/13 13:39:53;;;;;;;2.53;1.10;;;12.80;99.90;;;;;;4993025;28;20514;-72
2023/11/13 13:42:21;;;;;;;2.63;1.00;;;12.80;99.90;;;;;;4993153;28;20496;-72
2023/11/13 13:44:48;;;;;;;1.23;1.10;;;12.80;99.90;;;;;;4992284;28;21033;-72
2023/11/13 13:47:17;;;;;;;1.40;1.30;;;12.80;99.90;;;;;;4993175;28;20966;-72
2023/11/13 13:49:44;;;;;;;1.40;1.23;;;12.80;99.90;;;;;;4992696;28;21066;-72
2023/11/13 13:52:14;;;;;;;1.00;0.90;;;12.80;99.90;;;;;;4993100;28;20528;-72
2023/11/13 13:54:40;;;;;;;1.73;1.10;;;12.80;99.90;;;;;;4992511;28;20884;-72
2023/11/13 13:57:07;;;;;;;1.80;0.90;;;12.90;99.90;;;;;;4992600;28;20955;-72
2023/11/13 13:59:34;;;;;;;2.70;0.90;;;12.90;99.90;;;;;;4992901;28;20462;-72
2023/11/13 14:02:01;;;;;;;2.20;1.00;;;12.90;99.90;;;;;;4992636;28;20858;-72
2023/11/13 14:04:29;;;;;;;1.30;0.97;;;12.90;99.90;;;;;;4992408;28;20461;-72
2023/11/13 14:06:58;;;;;;;2.00;1.00;;;13.00;99.90;;;;;;4992381;28;20465;-72
2023/11/13 14:09:26;;;;;;;1.33;0.80;;;13.00;99.90;;;;;;4987386;28;20506;-72
2023/11/13 14:11:54;;;;;;;1.63;1.47;;;13.00;99.90;;;;;;4987506;28;20700;-72
2023/11/13 14:14:21;;;;;;;1.10;1.00;;;13.00;99.90;;;;;;4988908;28;20834;-72
2023/11/13 14:16:50;;;;;;;1.40;1.30;;;13.00;99.90;;;;;;4987707;28;20465;-72
2023/11/13 14:19:16;;;;;;;1.10;1.00;;;13.00;99.90;;;;;;4992237;28;20508;-72
2023/11/13 14:21:46;;;;;;;1.10;1.00;;;13.00;99.90;;;;;;4992151;28;20978;-72
2023/11/13 14:24:14;;;;;;;2.20;1.07;;;13.00;99.90;;;;;;4991045;28;20504;-72
2023/11/13 14:26:41;;;;;;;1.33;1.00;;;13.00;99.90;;;;;;4991985;28;20489;-72
2023/11/13 14:29:12;;;;;;;2.30;1.40;;;13.10;99.90;;;;;;4991856;28;20842;-72
2023/11/13 14:31:40;;;;;;;6.63;1.53;;;13.00;99.90;;;;;;4991560;28;20985;-72
2023/11/13 14:34:08;;;;;;;2.10;1.20;;;13.00;99.90;;;;;;4990983;28;20473;-72
2023/11/13 14:36:35;;;;;;;1.20;1.08;;;13.00;99.90;;;;;;4992043;28;20822;-73
2023/11/13 14:39:05;;;;;;;2.40;1.17;;;13.00;99.90;;;;;;4991109;28;20686;-73
2023/11/13 14:41:33;;;;;;;5.33;1.50;;;13.00;99.90;;;;;;4991868;28;20477;-72
2023/11/13 14:44:01;;;;;;;1.23;1.07;;;13.00;99.90;;;;;;4991245;28;20503;-72
2023/11/13 14:46:28;;;;;;;2.97;1.30;;;13.00;99.90;;;;;;4991734;28;20468;-72
2023/11/13 14:48:56;;;;;;;1.67;1.57;;;13.00;99.90;;;;;;4991020;28;20955;-72
2023/11/13 14:51:22;;;;;;;1.20;1.10;;;13.00;99.90;;;;;;4991832;28;20494;-72
2023/11/13 14:53:50;;;;;;;1.40;1.30;;;13.00;99.90;;;;;;4991388;28;20850;-72
2023/11/13 14:56:18;;;;;;;2.60;1.23;;;13.00;99.90;;;;;;4991748;28;20469;-72
2023/11/13 14:58:44;;;;;;;1.50;1.30;;;13.00;99.90;;;;;;4991805;28;20633;-72
2023/11/13 15:01:11;;;;;;;2.27;1.43;;;13.00;99.90;;;;;;4990864;28;20985;-72
2023/11/13 15:03:38;;;;;;;2.10;1.33;;;13.10;99.90;;;;;;4991333;28;20463;-72
2023/11/13 15:06:08;;;;;;;1.70;1.47;;;13.10;99.90;;;;;;4990551;28;20470;-72
2023/11/13 15:08:34;;;;;;;1.50;1.30;;;13.10;99.90;;;;;;4991377;28;20503;-72
2023/11/13 15:11:07;;;;;;;1.13;0.90;;;13.10;99.90;;;;;;4990687;28;20493;-72
2023/11/13 15:13:35;;;;;;;1.80;1.20;;;13.10;99.90;;;;;;4991530;28;20473;-72
2023/11/13 15:16:05;;;;;;;1.70;0.97;;;13.10;99.90;;;;;;4990589;28;20556;-72
2023/11/13 15:18:33;;;;;;;1.40;1.30;;;13.10;99.90;;;;;;4991450;28;20471;-72
2023/11/13 15:21:00;;;;;;;2.60;1.27;;;13.20;99.90;;;;;;4990891;28;20481;-72
2023/11/13 15:23:27;;;;;;;1.67;1.10;;;13.10;99.90;;;;;;4991335;28;20492;-72
2023/11/13 15:25:54;;;;;;;2.50;1.53;;;13.20;99.90;;;;;;4990905;28;20466;-72
2023/11/13 15:28:21;;;;;;;1.20;1.10;;;13.20;99.90;;;;;;4991282;28;20484;-72
2023/11/13 15:30:49;;;;;;;1.00;0.90;;;13.20;99.90;;;;;;4990803;28;20836;-72
2023/11/13 15:33:16;;;;;;;1.40;1.10;;;13.20;99.90;;;;;;4991094;28;20472;-72
2023/11/13 15:35:42;;;;;;;1.53;1.20;;;13.20;99.90;;;;;;4992883;28;20511;-72
2023/11/13 15:38:09;;;;;;;3.60;1.10;;;13.20;99.90;;;;;;4995539;28;21025;-72
2023/11/13 15:40:36;;;;;;;1.63;1.40;;;13.20;99.90;;;;;;4995492;28;20481;-72
2023/11/13 15:43:03;;;;;;;1.00;0.90;;;13.20;99.90;;;;;;4995264;28;20977;-72
2023/11/13 15:45:31;;;;;;;1.07;0.97;;;13.20;99.90;;;;;;4995097;28;20831;-72
2023/11/13 15:47:59;;;;;;;1.17;1.00;;;13.20;99.90;;;;;;4995042;28;20469;-72
2023/11/13 15:50:27;;;;;;;0.83;0.80;;;13.20;99.90;;;;;;4988190;28;20478;-72
2023/11/13 15:52:54;;;;;;;1.10;1.00;;;13.20;99.90;;;;;;4995042;28;20593;-72
2023/11/13 15:55:20;;;;;;;1.97;1.20;;;13.20;99.90;;;;;;4993655;28;20846;-72
2023/11/13 15:57:47;;;;;;;1.50;1.30;;;13.20;99.90;;;;;;4994655;28;20468;-72
2023/11/13 16:00:15;;;;;;;1.43;1.00;;;13.20;99.90;;;;;;4994540;28;20861;-72
2023/11/13 16:02:44;;;;;;;2.03;1.30;;;13.10;99.90;;;;;;4994785;28;20461;-72
2023/11/13 16:05:12;;;;;;;2.10;1.37;;;13.10;99.90;;;;;;4994107;28;20472;-72
2023/11/13 16:07:39;;;;;;;1.40;1.13;;;13.10;99.90;;;;;;4994895;28;20493;-71
2023/11/13 16:10:07;;;;;;;1.70;1.30;;;13.10;99.90;;;;;;4994490;28;20486;-72
2023/11/13 16:12:34;;;;;;;1.20;1.10;;;13.10;99.90;;;;;;4994876;28;20488;-72
2023/11/13 16:15:01;;;;;;;1.30;1.20;;;13.10;99.90;;;;;;4993894;28;20491;-72
2023/11/13 16:17:29;;;;;;;1.30;1.20;;;13.00;99.90;;;;;;4994647;28;20655;-72
2023/11/13 16:19:56;;;;;;;1.30;1.10;;;13.00;99.90;;;;;;4994777;28;20809;-73
2023/11/13 16:22:24;;;;;;;2.30;1.40;;;13.10;99.90;;;;;;4993306;28;20492;-71
2023/11/13 16:24:51;;;;;;;1.83;1.27;;;13.10;99.90;;;;;;4994322;28;20852;-72
2023/11/13 16:27:18;;;;;;;1.27;1.17;;;13.00;99.90;;;;;;4975710;28;20532;-71
2023/11/13 16:29:45;;;;;;;1.48;1.23;;;13.10;99.90;;;;;;4975244;28;20517;-71
2023/11/13 16:32:12;;;;;;;3.38;1.10;;;13.00;99.90;;;;;;4975165;28;20257;-71
2023/11/13 16:34:39;;;;;;;1.98;1.27;;;13.00;99.90;;;;;;4976783;28;20485;-71
2023/11/13 16:37:08;;;;;;;1.93;1.33;;;13.00;99.90;;;;;;4990765;28;20222;-71
2023/11/13 16:39:37;;;;;;;1.75;1.35;;;13.00;99.90;;;;;;4992232;28;20548;-71
2023/11/13 16:42:04;;;;;;;1.80;1.53;;;13.00;99.90;;;;;;4992375;28;20252;-70
2023/11/13 16:44:31;;;;;;;1.88;1.42;;;13.00;99.90;;;;;;4992676;28;20471;-71
2023/11/13 16:46:59;;;;;;;2.40;1.20;;;13.00;99.90;;;;;;4991939;28;20245;-71
2023/11/13 16:49:27;;;;;;;1.15;1.05;;;13.10;99.90;;;;;;4985545;28;20321;-72
2023/11/13 16:51:54;;;;;;;1.23;1.13;;;13.00;99.90;;;;;;4993985;28;20225;-71
2023/11/13 16:54:21;;;;;;;1.13;1.00;;;13.00;99.90;;;;;;4992167;28;20325;-71
2023/11/13 16:56:49;;;;;;;1.45;1.23;;;13.00;99.90;;;;;;4988447;28;20316;-72
2023/11/13 16:59:16;;;;;;;2.35;1.48;;;13.00;99.90;;;;;;4985271;28;20280;-71
2023/11/13 17:01:43;;;;;;;1.27;1.17;;;13.00;99.90;;;;;;4993566;28;20233;-71
2023/11/13 17:04:10;;;;;;;2.42;1.40;;;13.00;99.90;;;;;;4992836;28;20221;-71
2023/11/13 17:06:37;;;;;;;1.33;1.10;;;13.00;99.90;;;;;;4993956;28;20217;-71
2023/11/13 17:09:04;;;;;;;1.13;1.02;;;13.00;99.90;;;;;;4992453;28;20242;-72
2023/11/13 17:11:32;;;;;;;1.10;0.80;;;13.00;99.90;;;;;;4992736;28;20307;-72